Galway, Ireland
Current Conditions -  °F | °C
As of 2:30 PM on Friday 24 Oct 2014 (Local Time) from EINN Reporting Station
Scattered Clouds Scattered Clouds  
Wind Chill: 54°   Ceiling: Unl
Heat Index: 54°   Visibility: 6mi
Dew Point: 46°   Wind: 17mph
Humidity: 77%   Direction: 230°SW
Pressure: 29.85"   Gusts: NA
Location:  53.28°N, 9.06°W
Report Text: EINN 241430Z 23015KT 9999 FEW015 FEW018CB SCT030 12/08 Q1011 NOSIG
Loading
Personal Weather Stations






























Interactive Weather Map
Tropical Storm Tracking
New forecast layout! Learn more

10-Day Weather Forecast

Advertisements
Track Severe Weather on mobile